Time;durP1;ratioP1;P1;durP2;ratioP2;P2;SDS_P1;SDS_P2;PMS_P1;PMS_P2;Temp;Humidity;BMP_temperature;BMP_pressure;BME280_temperature;BME280_humidity;BME280_pressure;Samples;Min_cycle;Max_cycle;Signal;HPM_P1;HPM_P2
2024/03/22 00:01:57;;;;;;;37.00;17.07;;;10.80;99.90;;;;;;5073737;28;20028;-46
2024/03/22 00:04:23;;;;;;;33.30;14.87;;;10.80;99.90;;;;;;5073255;28;20075;-47
2024/03/22 00:06:49;;;;;;;34.77;16.60;;;10.90;99.90;;;;;;5073699;28;20031;-46
2024/03/22 00:09:16;;;;;;;31.60;16.23;;;10.90;99.90;;;;;;5073041;28;20033;-47
2024/03/22 00:11:42;;;;;;;33.17;16.30;;;11.00;99.90;;;;;;5073380;28;20092;-46
2024/03/22 00:14:09;;;;;;;29.83;15.87;;;11.00;99.90;;;;;;5072699;28;20059;-48
2024/03/22 00:16:35;;;;;;;37.43;16.87;;;11.00;99.90;;;;;;5073252;28;20020;-46
2024/03/22 00:19:00;;;;;;;32.40;15.13;;;11.00;99.90;;;;;;5073553;28;20024;-47
2024/03/22 00:21:26;;;;;;;34.03;16.67;;;11.00;99.90;;;;;;5073694;28;20104;-47
2024/03/22 00:23:52;;;;;;;32.67;15.73;;;11.10;99.90;;;;;;5073807;28;20354;-47
2024/03/22 00:26:17;;;;;;;36.97;16.70;;;11.20;99.90;;;;;;5074715;28;20028;-47
2024/03/22 00:28:43;;;;;;;34.73;14.67;;;11.20;99.90;;;;;;5074000;28;20498;-48
2024/03/22 00:31:09;;;;;;;34.17;16.07;;;11.10;99.90;;;;;;5074118;28;20024;-47
2024/03/22 00:33:34;;;;;;;33.43;15.83;;;11.20;99.90;;;;;;5074307;28;20025;-46
2024/03/22 00:36:01;;;;;;;36.40;16.60;;;11.10;99.90;;;;;;5074515;28;20075;-46
2024/03/22 00:38:26;;;;;;;34.30;15.97;;;11.20;99.90;;;;;;5074154;28;20723;-48
2024/03/22 00:40:52;;;;;;;36.00;16.30;;;11.30;99.90;;;;;;5073099;28;20145;-52
2024/03/22 00:43:19;;;;;;;33.90;15.60;;;11.30;99.90;;;;;;5071637;28;20070;-51
2024/03/22 00:45:44;;;;;;;33.73;15.77;;;11.30;99.90;;;;;;5072724;28;20063;-51
2024/03/22 00:48:10;;;;;;;33.20;15.63;;;11.30;99.90;;;;;;5068161;28;20122;-47
2024/03/22 00:50:36;;;;;;;36.60;15.83;;;11.20;99.90;;;;;;5072635;28;20024;-51
2024/03/22 00:53:03;;;;;;;38.93;15.37;;;11.20;99.90;;;;;;5072493;28;20469;-51
2024/03/22 00:55:28;;;;;;;34.33;15.90;;;11.20;99.90;;;;;;5072019;28;20035;-52
2024/03/22 00:57:54;;;;;;;33.97;15.57;;;11.20;99.90;;;;;;5072537;28;20032;-51
2024/03/22 01:00:20;;;;;;;32.27;15.47;;;11.10;99.90;;;;;;5072232;28;20033;-48
2024/03/22 01:02:46;;;;;;;33.53;15.13;;;11.10;99.90;;;;;;5051028;28;20466;-50
2024/03/22 01:05:11;;;;;;;36.67;15.40;;;11.10;99.90;;;;;;5068906;28;20418;-49
2024/03/22 01:07:37;;;;;;;38.33;15.73;;;11.10;99.90;;;;;;5072495;28;20024;-51
2024/03/22 01:10:04;;;;;;;36.83;15.70;;;11.20;99.90;;;;;;5072013;28;20519;-51
2024/03/22 01:12:30;;;;;;;37.83;16.20;;;11.20;99.90;;;;;;5071991;28;20033;-50
2024/03/22 01:14:56;;;;;;;34.87;15.53;;;11.20;99.90;;;;;;5072094;28;20370;-50
2024/03/22 01:17:22;;;;;;;35.87;14.77;;;11.20;99.90;;;;;;5072174;28;20029;-48
2024/03/22 01:19:48;;;;;;;35.13;15.00;;;11.30;99.90;;;;;;5071962;28;20048;-47
2024/03/22 01:22:14;;;;;;;31.43;14.07;;;11.30;99.90;;;;;;5071992;28;20440;-49
2024/03/22 01:24:39;;;;;;;31.40;14.37;;;11.30;99.90;;;;;;5070257;28;20123;-51
2024/03/22 01:27:05;;;;;;;37.00;15.63;;;11.30;99.90;;;;;;5071927;28;20048;-49
2024/03/22 01:29:31;;;;;;;34.13;15.07;;;11.30;99.90;;;;;;5071489;28;20511;-48
2024/03/22 01:31:58;;;;;;;35.30;14.70;;;11.30;99.90;;;;;;5072027;28;20043;-47
2024/03/22 01:34:24;;;;;;;37.20;16.30;;;11.30;99.90;;;;;;5071326;28;20242;-48
2024/03/22 01:36:51;;;;;;;37.33;16.50;;;11.30;99.90;;;;;;5071797;28;20146;-48
2024/03/22 01:39:17;;;;;;;36.20;15.37;;;11.30;99.90;;;;;;5071219;28;20028;-52
2024/03/22 01:41:43;;;;;;;42.83;16.60;;;11.30;99.90;;;;;;5071487;28;20024;-47
2024/03/22 01:44:09;;;;;;;34.80;15.30;;;11.30;99.90;;;;;;5071252;28;20032;-49
2024/03/22 01:46:35;;;;;;;32.70;14.93;;;11.30;99.90;;;;;;5071452;28;20048;-50
2024/03/22 01:49:01;;;;;;;38.27;16.37;;;11.40;99.90;;;;;;5071482;28;20024;-52
2024/03/22 01:51:27;;;;;;;38.13;17.37;;;11.30;99.90;;;;;;5052027;28;20499;-50
2024/03/22 01:53:54;;;;;;;35.47;15.80;;;11.20;99.90;;;;;;5070239;28;20033;-49
2024/03/22 01:56:20;;;;;;;41.70;17.70;;;11.20;99.90;;;;;;5071294;28;20032;-48
2024/03/22 01:58:46;;;;;;;39.43;15.43;;;11.30;99.90;;;;;;5071272;28;20036;-49
2024/03/22 02:01:12;;;;;;;37.50;16.40;;;11.30;99.90;;;;;;5049923;28;20025;-50
2024/03/22 02:03:37;;;;;;;39.60;16.13;;;11.30;99.90;;;;;;5070972;28;20094;-49
2024/03/22 02:06:03;;;;;;;36.93;15.63;;;11.30;99.90;;;;;;5069845;28;20060;-51
2024/03/22 02:08:29;;;;;;;38.93;16.67;;;11.30;99.90;;;;;;5070818;28;20111;-50
2024/03/22 02:10:55;;;;;;;37.47;16.53;;;11.30;99.90;;;;;;5071363;28;20024;-49
2024/03/22 02:13:20;;;;;;;37.93;16.87;;;11.20;99.90;;;;;;5050501;28;20494;-50
2024/03/22 02:15:46;;;;;;;35.70;15.30;;;11.20;99.90;;;;;;5071104;28;20054;-50
2024/03/22 02:18:12;;;;;;;36.10;15.23;;;11.20;99.90;;;;;;5070810;28;20020;-48
2024/03/22 02:20:37;;;;;;;37.50;16.77;;;11.20;99.90;;;;;;5070852;28;20056;-50
2024/03/22 02:23:03;;;;;;;39.23;15.97;;;11.30;99.90;;;;;;5070740;28;20035;-51
2024/03/22 02:25:28;;;;;;;36.50;14.83;;;11.30;99.90;;;;;;5070487;28;20063;-52
2024/03/22 02:27:54;;;;;;;38.07;15.80;;;11.30;99.90;;;;;;5070873;28;20402;-50
2024/03/22 02:30:20;;;;;;;38.77;16.17;;;11.30;99.90;;;;;;5070477;28;20028;-48
2024/03/22 02:32:45;;;;;;;36.20;15.57;;;11.30;99.90;;;;;;5070774;28;20036;-46
2024/03/22 02:35:11;;;;;;;37.37;16.60;;;11.30;99.90;;;;;;5070351;28;20028;-50
2024/03/22 02:37:36;;;;;;;35.07;15.03;;;11.30;99.90;;;;;;5070409;28;20448;-50
2024/03/22 02:40:02;;;;;;;37.10;15.40;;;11.30;99.90;;;;;;5070306;28;20082;-52
2024/03/22 02:42:28;;;;;;;36.97;15.20;;;11.30;99.90;;;;;;5070300;28;20648;-51
2024/03/22 02:44:53;;;;;;;39.37;15.83;;;11.30;99.90;;;;;;5052370;28;20115;-48
2024/03/22 02:47:19;;;;;;;37.67;15.93;;;11.20;99.90;;;;;;5070297;28;20024;-48
2024/03/22 02:49:45;;;;;;;40.43;17.23;;;11.20;99.90;;;;;;5070246;28;20067;-49
2024/03/22 02:52:10;;;;;;;35.23;14.73;;;11.20;99.90;;;;;;5070463;28;20087;-49
2024/03/22 02:54:36;;;;;;;37.67;15.03;;;11.20;99.90;;;;;;5069856;28;20080;-49
2024/03/22 02:57:02;;;;;;;36.13;15.47;;;11.20;99.90;;;;;;5070554;28;20032;-47
2024/03/22 02:59:28;;;;;;;40.50;15.27;;;11.20;99.90;;;;;;5069992;28;20536;-48
2024/03/22 03:01:54;;;;;;;36.83;15.73;;;11.30;99.90;;;;;;5070303;28;20035;-50
2024/03/22 03:04:19;;;;;;;35.80;14.83;;;11.30;99.90;;;;;;5069799;28;20033;-51
2024/03/22 03:06:45;;;;;;;35.53;15.27;;;11.30;99.90;;;;;;5069879;28;20021;-51
2024/03/22 03:09:11;;;;;;;34.43;14.77;;;11.30;99.90;;;;;;5069874;28;20027;-52
2024/03/22 03:11:39;;;;;;;34.43;14.73;;;11.30;99.90;;;;;;5069912;28;20074;-48
2024/03/22 03:14:05;;;;;;;41.00;15.73;;;11.30;99.90;;;;;;5069760;28;20477;-47
2024/03/22 03:16:31;;;;;;;40.67;15.80;;;11.20;99.90;;;;;;5069965;28;20048;-48
2024/03/22 03:18:56;;;;;;;34.43;15.17;;;11.20;99.90;;;;;;5069634;28;20013;-49
2024/03/22 03:21:22;;;;;;;37.10;15.53;;;11.20;99.90;;;;;;5065739;28;20690;-52
2024/03/22 03:23:48;;;;;;;37.30;15.87;;;11.20;99.90;;;;;;5048261;28;20029;-48
2024/03/22 03:26:13;;;;;;;38.60;16.40;;;11.30;99.90;;;;;;5065778;28;20445;-48
2024/03/22 03:28:39;;;;;;;35.23;14.47;;;11.20;99.90;;;;;;5069834;28;20024;-48
2024/03/22 03:31:04;;;;;;;38.37;15.03;;;11.30;99.90;;;;;;5070011;28;20082;-49
2024/03/22 03:33:30;;;;;;;33.73;14.90;;;11.20;99.90;;;;;;5069755;28;20127;-49
2024/03/22 03:35:56;;;;;;;34.07;15.07;;;11.10;99.90;;;;;;5069989;28;20027;-46
2024/03/22 03:38:22;;;;;;;31.97;15.03;;;11.10;99.90;;;;;;5069635;28;20361;-51
2024/03/22 03:40:48;;;;;;;36.47;14.20;;;11.00;99.90;;;;;;5070038;28;20185;-48
2024/03/22 03:43:13;;;;;;;36.73;15.27;;;10.90;99.90;;;;;;5052020;28;20078;-49
2024/03/22 03:45:39;;;;;;;31.53;15.23;;;11.00;99.90;;;;;;5067457;28;20411;-52
2024/03/22 03:48:05;;;;;;;39.43;16.87;;;10.90;99.90;;;;;;5069820;28;20444;-47
2024/03/22 03:50:30;;;;;;;36.13;15.37;;;10.90;99.90;;;;;;5069678;28;20033;-51
2024/03/22 03:52:56;;;;;;;40.43;16.23;;;11.00;99.90;;;;;;5069891;28;20052;-51
2024/03/22 03:55:23;;;;;;;33.90;13.97;;;11.00;99.90;;;;;;5051255;28;20044;-48
2024/03/22 03:57:50;;;;;;;36.20;14.30;;;11.00;99.90;;;;;;5070001;28;20028;-52
2024/03/22 04:00:16;;;;;;;35.00;14.73;;;11.10;99.90;;;;;;5069809;28;20465;-48
2024/03/22 04:02:42;;;;;;;33.50;14.80;;;11.10;99.90;;;;;;5069715;28;20112;-47
2024/03/22 04:05:07;;;;;;;35.70;14.90;;;11.10;99.90;;;;;;5069407;28;20031;-47
2024/03/22 04:07:33;;;;;;;31.03;14.90;;;11.10;99.90;;;;;;5069679;28;20044;-47
2024/03/22 04:10:00;;;;;;;34.57;15.10;;;11.00;99.90;;;;;;5069508;28;20035;-50
2024/03/22 04:12:26;;;;;;;32.87;14.00;;;11.10;99.90;;;;;;5069240;28;20266;-52
2024/03/22 04:14:52;;;;;;;34.13;14.63;;;11.10;99.90;;;;;;5069850;28;20488;-52
2024/03/22 04:17:18;;;;;;;31.73;14.47;;;11.10;99.90;;;;;;5070248;28;20029;-52
2024/03/22 04:19:43;;;;;;;30.20;14.33;;;11.00;99.90;;;;;;5053981;28;20039;-49
2024/03/22 04:22:09;;;;;;;32.10;15.37;;;11.00;99.90;;;;;;5073290;28;20342;-48
2024/03/22 04:24:34;;;;;;;34.77;15.60;;;11.00;99.90;;;;;;5072641;28;20121;-49
2024/03/22 04:27:00;;;;;;;34.10;14.67;;;11.00;99.90;;;;;;5073353;28;20103;-51
2024/03/22 04:29:26;;;;;;;32.50;15.27;;;11.00;99.90;;;;;;5073066;28;20031;-51
2024/03/22 04:31:51;;;;;;;32.53;14.10;;;11.00;99.90;;;;;;5073230;28;20380;-52
2024/03/22 04:34:17;;;;;;;34.20;13.93;;;11.10;99.90;;;;;;5072597;28;20025;-48
2024/03/22 04:36:43;;;;;;;35.47;15.53;;;11.10;99.90;;;;;;5072781;28;20046;-47
2024/03/22 04:39:09;;;;;;;31.63;14.87;;;11.00;99.90;;;;;;5072849;28;20020;-47
2024/03/22 04:41:35;;;;;;;35.37;14.17;;;11.00;99.90;;;;;;5072980;28;20032;-47
2024/03/22 04:44:01;;;;;;;35.77;14.87;;;11.00;99.90;;;;;;5072580;28;20534;-48
2024/03/22 04:46:27;;;;;;;35.33;15.20;;;10.90;99.90;;;;;;5054743;28;20373;-48
2024/03/22 04:48:52;;;;;;;33.57;14.93;;;11.00;99.90;;;;;;5072582;28;20079;-47
2024/03/22 04:51:18;;;;;;;31.43;14.77;;;11.00;99.90;;;;;;5072499;28;20059;-47
2024/03/22 04:53:44;;;;;;;33.20;14.90;;;11.10;99.90;;;;;;5072205;28;20107;-48
2024/03/22 04:56:10;;;;;;;28.03;13.33;;;11.00;99.90;;;;;;5072158;28;20067;-47
2024/03/22 04:58:35;;;;;;;29.33;14.23;;;11.00;99.90;;;;;;5072121;28;20064;-51
2024/03/22 05:01:01;;;;;;;30.10;14.07;;;11.00;99.90;;;;;;5072294;28;20090;-47
2024/03/22 05:03:26;;;;;;;29.77;14.03;;;11.00;99.90;;;;;;5072387;28;20032;-47
2024/03/22 05:05:52;;;;;;;31.70;14.63;;;11.00;99.90;;;;;;5063379;28;20029;-48
2024/03/22 05:08:18;;;;;;;28.90;14.10;;;11.00;99.90;;;;;;5072161;28;20063;-47
2024/03/22 05:10:43;;;;;;;35.73;14.80;;;10.90;99.90;;;;;;5072162;28;20028;-46
2024/03/22 05:13:09;;;;;;;29.40;14.03;;;11.00;99.90;;;;;;5053833;28;20024;-47
2024/03/22 05:15:35;;;;;;;30.30;14.57;;;11.10;99.90;;;;;;5072139;28;20155;-47
2024/03/22 05:18:00;;;;;;;33.97;13.87;;;11.10;99.90;;;;;;5071946;28;20115;-47
2024/03/22 05:20:26;;;;;;;35.13;14.77;;;11.00;99.90;;;;;;5072109;28;20115;-49
2024/03/22 05:22:52;;;;;;;31.60;14.27;;;10.90;99.90;;;;;;5072119;28;20370;-47
2024/03/22 05:25:18;;;;;;;34.80;14.50;;;10.90;99.90;;;;;;5071963;28;20028;-47
2024/03/22 05:27:44;;;;;;;28.50;14.27;;;11.00;99.90;;;;;;5072129;28;20043;-47
2024/03/22 05:30:11;;;;;;;34.40;15.33;;;11.00;99.90;;;;;;5072222;28;20032;-47
2024/03/22 05:32:37;;;;;;;30.50;14.13;;;11.00;99.90;;;;;;5072170;28;20043;-46
2024/03/22 05:35:03;;;;;;;34.40;14.00;;;11.00;99.90;;;;;;5071658;28;20120;-50
2024/03/22 05:37:28;;;;;;;30.90;15.17;;;10.90;99.90;;;;;;5072143;28;20071;-49
2024/03/22 05:39:54;;;;;;;30.70;14.70;;;10.90;99.90;;;;;;5071737;28;20063;-46
2024/03/22 05:42:20;;;;;;;30.00;13.93;;;10.90;99.90;;;;;;5071855;28;20028;-46
2024/03/22 05:44:46;;;;;;;28.23;14.57;;;11.00;99.90;;;;;;5071305;28;20105;-47
2024/03/22 05:47:11;;;;;;;34.10;15.27;;;11.00;99.90;;;;;;5071638;28;20031;-51
2024/03/22 05:49:37;;;;;;;34.17;14.60;;;11.00;99.90;;;;;;5071091;28;20445;-47
2024/03/22 05:52:03;;;;;;;31.00;14.80;;;11.00;99.90;;;;;;5071601;28;20032;-46
2024/03/22 05:54:28;;;;;;;29.60;14.67;;;11.10;99.90;;;;;;5071286;28;20097;-46
2024/03/22 05:56:54;;;;;;;32.70;14.80;;;11.10;99.90;;;;;;5071356;28;20059;-47
2024/03/22 05:59:20;;;;;;;27.57;13.97;;;11.10;99.90;;;;;;5071749;28;20483;-47
2024/03/22 06:01:46;;;;;;;33.83;15.47;;;11.30;99.90;;;;;;5071539;28;20112;-48
2024/03/22 06:04:11;;;;;;;30.30;14.70;;;11.30;99.90;;;;;;5071403;28;20334;-47
2024/03/22 06:06:38;;;;;;;32.17;15.13;;;11.30;99.90;;;;;;5071697;28;20031;-48
2024/03/22 06:09:03;;;;;;;29.87;14.33;;;11.40;99.90;;;;;;5072628;28;20032;-47
2024/03/22 06:11:32;;;;;;;30.63;15.37;;;11.40;99.90;;;;;;5051559;28;20036;-47
2024/03/22 06:13:58;;;;;;;29.08;14.50;;;11.40;99.90;;;;;;5072375;28;20025;-46
2024/03/22 06:16:23;;;;;;;32.40;14.83;;;11.50;99.90;;;;;;5072322;28;20443;-46
2024/03/22 06:18:49;;;;;;;27.50;14.57;;;11.60;99.90;;;;;;5070725;28;20024;-47
2024/03/22 06:21:15;;;;;;;26.73;14.60;;;11.60;99.90;;;;;;5071111;28;20028;-47
2024/03/22 06:23:41;;;;;;;27.90;13.97;;;11.60;99.90;;;;;;5070642;28;20025;-47
2024/03/22 06:26:07;;;;;;;26.37;13.33;;;11.70;99.90;;;;;;5070618;28;20027;-47
2024/03/22 06:28:32;;;;;;;31.97;14.57;;;11.80;99.90;;;;;;5070545;28;20036;-47
2024/03/22 06:30:58;;;;;;;27.37;13.93;;;11.70;99.90;;;;;;5070564;28;20020;-47
2024/03/22 06:33:24;;;;;;;30.63;14.10;;;11.70;99.90;;;;;;5070353;28;20094;-49
2024/03/22 06:35:49;;;;;;;28.47;14.93;;;11.80;99.90;;;;;;5069883;28;20029;-47
2024/03/22 06:38:15;;;;;;;29.40;13.67;;;11.80;99.90;;;;;;5070486;28;20346;-47
2024/03/22 06:40:40;;;;;;;33.23;15.70;;;11.80;99.90;;;;;;5069927;28;20115;-46
2024/03/22 06:43:06;;;;;;;27.10;14.20;;;12.00;99.90;;;;;;5070555;28;20027;-48
2024/03/22 06:45:32;;;;;;;27.77;14.05;;;12.10;99.90;;;;;;5065513;28;20052;-46
2024/03/22 06:47:57;;;;;;;27.65;13.05;;;12.20;99.90;;;;;;5071437;28;20036;-47
2024/03/22 06:50:26;;;;;;;31.23;13.52;;;12.20;99.90;;;;;;5070365;28;20028;-50
2024/03/22 06:52:53;;;;;;;28.27;13.13;;;12.40;99.90;;;;;;5072078;28;20032;-51
2024/03/22 06:55:22;;;;;;;24.48;13.48;;;12.50;99.90;;;;;;5071787;28;20055;-50
2024/03/22 06:57:49;;;;;;;28.50;12.88;;;12.60;99.90;;;;;;5071945;28;20037;-49
2024/03/22 07:00:15;;;;;;;27.05;13.57;;;12.70;99.90;;;;;;5071716;28;20034;-53
2024/03/22 07:02:41;;;;;;;23.67;13.13;;;12.80;99.90;;;;;;5071851;28;20056;-52
2024/03/22 07:05:08;;;;;;;25.90;12.40;;;12.90;99.90;;;;;;5071739;28;20449;-51
2024/03/22 07:07:37;;;;;;;25.23;12.85;;;13.10;99.90;;;;;;5071672;28;20071;-53
2024/03/22 07:10:05;;;;;;;25.33;12.43;;;13.20;99.90;;;;;;5071481;28;20033;-50
2024/03/22 07:12:33;;;;;;;29.02;13.23;;;13.40;99.90;;;;;;5071795;28;20068;-52
2024/03/22 07:15:00;;;;;;;23.40;11.75;;;13.50;99.90;;;;;;5071482;28;20545;-52
2024/03/22 07:17:26;;;;;;;23.60;11.30;;;13.60;99.90;;;;;;5053561;28;20036;-52
2024/03/22 07:19:52;;;;;;;24.48;11.75;;;13.70;99.90;;;;;;5071558;28;20033;-48
2024/03/22 07:22:18;;;;;;;23.65;12.30;;;13.70;99.90;;;;;;5071684;28;20032;-52
2024/03/22 07:24:44;;;;;;;21.55;12.10;;;13.80;99.90;;;;;;5071398;28;20142;-52
2024/03/22 07:27:10;;;;;;;22.98;12.48;;;13.80;99.90;;;;;;5071567;28;20029;-51
2024/03/22 07:29:36;;;;;;;23.95;11.75;;;13.90;99.90;;;;;;5071436;28;20541;-52
2024/03/22 07:32:03;;;;;;;21.23;11.65;;;13.90;99.90;;;;;;5071646;28;20115;-50
2024/03/22 07:34:29;;;;;;;20.10;11.35;;;14.00;99.90;;;;;;5071588;28;20036;-52
2024/03/22 07:36:54;;;;;;;22.98;11.63;;;14.00;99.90;;;;;;5071597;28;20223;-52
2024/03/22 07:39:20;;;;;;;22.15;12.07;;;14.00;99.90;;;;;;5071605;28;20032;-52
2024/03/22 07:41:45;;;;;;;25.52;10.73;;;14.00;99.90;;;;;;5071483;28;20492;-50
2024/03/22 07:44:11;;;;;;;22.63;11.15;;;14.00;99.90;;;;;;5071428;28;20031;-52
2024/03/22 07:46:36;;;;;;;22.38;11.10;;;14.00;99.90;;;;;;5071442;28;20492;-49
2024/03/22 07:49:04;;;;;;;22.60;11.05;;;14.00;99.90;;;;;;5071497;28;20159;-53
2024/03/22 07:51:30;;;;;;;20.23;10.85;;;14.00;99.90;;;;;;5071350;28;20532;-53
2024/03/22 07:53:55;;;;;;;19.52;10.27;;;14.10;99.90;;;;;;5074536;28;20025;-52
2024/03/22 07:56:21;;;;;;;19.83;10.93;;;14.10;99.90;;;;;;5075107;28;20028;-53
2024/03/22 07:58:47;;;;;;;24.25;11.40;;;14.10;99.90;;;;;;5075220;28;20059;-53
2024/03/22 08:01:13;;;;;;;19.05;10.15;;;14.10;99.90;;;;;;5075090;28;20063;-49
2024/03/22 08:03:38;;;;;;;20.35;10.52;;;14.10;99.90;;;;;;5074944;28;20458;-52
2024/03/22 08:06:04;;;;;;;18.50;9.50;;;14.20;99.90;;;;;;5073793;28;20028;-53
2024/03/22 08:08:30;;;;;;;19.45;10.50;;;14.20;99.90;;;;;;5074978;28;20109;-53
2024/03/22 08:10:55;;;;;;;20.40;10.25;;;14.30;99.90;;;;;;5074875;28;20111;-53
2024/03/22 08:13:21;;;;;;;20.13;10.88;;;14.50;99.90;;;;;;5074819;28;20040;-53
2024/03/22 08:15:47;;;;;;;19.10;10.32;;;14.70;99.90;;;;;;5074578;28;20078;-53
2024/03/22 08:18:13;;;;;;;18.98;10.13;;;14.80;99.90;;;;;;5074851;28;20032;-53
2024/03/22 08:20:39;;;;;;;20.00;10.68;;;14.90;99.90;;;;;;5074701;28;20029;-52
2024/03/22 08:23:07;;;;;;;18.58;9.45;;;14.90;99.90;;;;;;5074689;28;20036;-51
2024/03/22 08:25:33;;;;;;;17.90;9.57;;;14.70;99.90;;;;;;5074533;28;20040;-49
2024/03/22 08:27:59;;;;;;;17.17;8.90;;;14.60;99.90;;;;;;5074509;28;20028;-53
2024/03/22 08:30:25;;;;;;;27.17;14.57;;;14.60;99.90;;;;;;5073388;28;20487;-54
2024/03/22 08:32:51;;;;;;;17.88;9.98;;;14.60;99.90;;;;;;5074599;28;20036;-52
2024/03/22 08:35:17;;;;;;;17.23;8.82;;;14.50;99.90;;;;;;5074388;28;20047;-53
2024/03/22 08:37:42;;;;;;;18.20;8.63;;;14.50;99.90;;;;;;5074540;28;20373;-49
2024/03/22 08:40:09;;;;;;;14.98;7.88;;;14.60;99.90;;;;;;5074269;28;20477;-50
2024/03/22 08:42:36;;;;;;;17.30;8.27;;;14.70;99.90;;;;;;5074338;28;20047;-52
2024/03/22 08:45:04;;;;;;;16.52;8.13;;;15.00;99.90;;;;;;5074206;28;20107;-52
2024/03/22 08:47:30;;;;;;;16.42;8.13;;;15.20;99.90;;;;;;5074495;28;20493;-52
2024/03/22 08:49:57;;;;;;;15.18;7.82;;;15.30;99.90;;;;;;5074387;28;20024;-53
2024/03/22 08:52:24;;;;;;;14.45;8.20;;;15.30;99.90;;;;;;5074265;28;20098;-52
2024/03/22 08:54:51;;;;;;;14.93;7.95;;;15.40;99.90;;;;;;5074056;28;20024;-50
2024/03/22 08:57:16;;;;;;;16.80;8.20;;;15.30;99.90;;;;;;5074117;28;20036;-48
2024/03/22 08:59:42;;;;;;;15.50;7.93;;;15.20;99.90;;;;;;5073946;28;20027;-52
2024/03/22 09:02:07;;;;;;;15.95;7.80;;;15.20;99.90;;;;;;5074041;28;20039;-51
2024/03/22 09:04:33;;;;;;;14.77;7.70;;;15.10;99.90;;;;;;5073448;28;20119;-49
2024/03/22 09:06:59;;;;;;;17.88;9.85;;;15.10;99.90;;;;;;5073820;28;20032;-50
2024/03/22 09:09:24;;;;;;;16.23;7.85;;;15.10;99.90;;;;;;5073727;28;20025;-49
2024/03/22 09:11:52;;;;;;;14.23;7.30;;;15.10;99.90;;;;;;5073702;28;20029;-52
2024/03/22 09:14:18;;;;;;;14.40;7.72;;;15.20;99.90;;;;;;5073624;28;20089;-51
2024/03/22 09:16:44;;;;;;;14.43;7.47;;;15.30;99.90;;;;;;5073708;28;20501;-53
2024/03/22 09:19:10;;;;;;;13.73;7.32;;;15.50;99.90;;;;;;5056011;28;20024;-51
2024/03/22 09:21:36;;;;;;;13.77;7.43;;;15.90;99.90;;;;;;5073619;28;20044;-50
2024/03/22 09:24:05;;;;;;;13.77;7.15;;;16.20;99.90;;;;;;5073437;28;20040;-50
2024/03/22 09:26:32;;;;;;;16.42;8.15;;;16.50;99.90;;;;;;5073559;28;20445;-51
2024/03/22 09:28:58;;;;;;;13.82;7.60;;;17.00;99.90;;;;;;5073516;28;20040;-53
2024/03/22 09:31:23;;;;;;;14.93;7.78;;;17.30;99.90;;;;;;5073350;28;20481;-49
2024/03/22 09:33:49;;;;;;;14.68;7.70;;;17.50;99.90;;;;;;5073320;28;20094;-52
2024/03/22 09:36:14;;;;;;;13.07;7.60;;;17.40;99.90;;;;;;5073505;28;20021;-54
2024/03/22 09:38:41;;;;;;;14.07;7.60;;;17.30;99.90;;;;;;5055315;28;20067;-49
2024/03/22 09:41:07;;;;;;;14.77;7.28;;;17.00;99.90;;;;;;5055343;28;20123;-50
2024/03/22 09:43:34;;;;;;;13.30;7.03;;;16.70;99.90;;;;;;5073346;28;20104;-50
2024/03/22 09:46:01;;;;;;;13.23;7.25;;;16.50;99.90;;;;;;5073163;28;20431;-53
2024/03/22 09:48:28;;;;;;;13.90;6.53;;;16.30;99.90;;;;;;5073184;28;20488;-48
2024/03/22 09:50:55;;;;;;;14.70;7.38;;;16.40;99.90;;;;;;5055142;28;20033;-53
2024/03/22 09:53:25;;;;;;;13.77;7.43;;;16.30;99.90;;;;;;5072920;28;20056;-52
2024/03/22 09:55:52;;;;;;;12.30;7.30;;;16.40;99.90;;;;;;5072916;28;20115;-52
2024/03/22 09:58:18;;;;;;;15.50;7.60;;;16.30;99.90;;;;;;5072901;28;20135;-52
2024/03/22 10:00:44;;;;;;;13.57;7.20;;;16.30;99.90;;;;;;5072829;28;20096;-53
2024/03/22 10:03:10;;;;;;;15.70;6.90;;;16.30;99.90;;;;;;5072986;28;20544;-52
2024/03/22 10:05:36;;;;;;;11.90;7.40;;;16.20;99.90;;;;;;5072617;28;20477;-52
2024/03/22 10:08:08;;;;;;;17.70;7.60;;;16.10;99.90;;;;;;5072767;28;20039;-53
2024/03/22 10:10:34;;;;;;;13.27;7.07;;;16.20;99.90;;;;;;5072667;28;20489;-53
2024/03/22 10:13:06;;;;;;;13.98;7.18;;;16.10;99.90;;;;;;5072755;28;20029;-49
2024/03/22 10:15:32;;;;;;;13.73;7.35;;;16.30;99.90;;;;;;5053798;28;20036;-48
2024/03/22 10:17:58;;;;;;;14.27;7.57;;;16.40;99.90;;;;;;5072694;28;20108;-53
2024/03/22 10:20:24;;;;;;;15.48;6.95;;;16.30;99.90;;;;;;5072390;28;20450;-54
2024/03/22 10:22:56;;;;;;;13.65;6.70;;;16.30;99.90;;;;;;5072592;28;20032;-54
2024/03/22 10:25:22;;;;;;;13.45;6.85;;;16.10;99.90;;;;;;5072552;28;20040;-48
2024/03/22 10:27:48;;;;;;;14.32;7.07;;;16.10;99.90;;;;;;5072338;28;20033;-53
2024/03/22 10:30:19;;;;;;;15.45;6.95;;;16.10;99.90;;;;;;5072131;28;20040;-49
2024/03/22 10:32:46;;;;;;;13.52;7.53;;;16.00;99.90;;;;;;5072170;28;20029;-50
2024/03/22 10:35:15;;;;;;;13.02;7.18;;;16.10;99.90;;;;;;5072079;28;20425;-49
2024/03/22 10:37:40;;;;;;;15.68;8.23;;;16.00;99.90;;;;;;5072318;28;20040;-50
2024/03/22 10:40:07;;;;;;;13.80;6.88;;;16.00;99.90;;;;;;5054306;28;20397;-53
2024/03/22 10:42:40;;;;;;;14.02;7.43;;;16.20;99.90;;;;;;5054211;28;20032;-51
2024/03/22 10:45:08;;;;;;;13.85;6.80;;;16.30;99.90;;;;;;5071944;28;20059;-53
2024/03/22 10:47:35;;;;;;;15.75;7.40;;;16.20;99.90;;;;;;5072110;28;20040;-49
2024/03/22 10:50:11;;;;;;;11.88;6.47;;;16.20;99.90;;;;;;5072021;28;20033;-51
2024/03/22 10:52:46;;;;;;;12.90;6.32;;;16.30;99.90;;;;;;5072035;28;20112;-52
2024/03/22 10:55:23;;;;;;;14.60;6.90;;;16.50;99.90;;;;;;5071855;28;20029;-53
2024/03/22 10:57:49;;;;;;;15.40;6.15;;;16.60;99.90;;;;;;5071710;28;20024;-53
2024/03/22 11:00:15;;;;;;;13.75;6.55;;;16.80;99.90;;;;;;5071704;28;20032;-51
2024/03/22 11:02:45;;;;;;;14.15;7.28;;;16.80;99.90;;;;;;5072040;28;20098;-50
2024/03/22 11:05:20;;;;;;;13.48;6.60;;;17.00;99.90;;;;;;5071725;28;20063;-49
2024/03/22 11:07:46;;;;;;;12.95;6.97;;;17.30;99.90;;;;;;5072125;28;20056;-50
2024/03/22 11:10:12;;;;;;;13.68;6.80;;;17.60;99.90;;;;;;5071754;28;20437;-53
2024/03/22 11:12:39;;;;;;;12.57;6.50;;;17.90;99.90;;;;;;5071854;28;20111;-51
2024/03/22 11:15:05;;;;;;;13.07;6.97;;;17.80;99.90;;;;;;5071793;28;20081;-51
2024/03/22 11:17:31;;;;;;;11.85;6.25;;;17.70;99.90;;;;;;5053707;28;20028;-50
2024/03/22 11:19:57;;;;;;;13.27;6.15;;;17.40;99.90;;;;;;5071808;28;20024;-51
2024/03/22 11:22:26;;;;;;;12.10;6.45;;;17.40;99.90;;;;;;5071711;28;20063;-50
2024/03/22 11:24:52;;;;;;;12.43;5.80;;;17.00;99.90;;;;;;5071830;28;20064;-54
2024/03/22 11:27:18;;;;;;;14.13;6.35;;;16.80;99.90;;;;;;5056027;28;20465;-53
2024/03/22 11:29:46;;;;;;;11.35;6.03;;;16.40;99.90;;;;;;5075821;28;20043;-52
2024/03/22 11:32:14;;;;;;;12.60;6.10;;;16.20;99.90;;;;;;5075919;28;20029;-53
2024/03/22 11:34:41;;;;;;;12.02;6.25;;;16.10;99.90;;;;;;5075601;28;20477;-52
2024/03/22 11:37:10;;;;;;;12.68;6.15;;;16.00;99.90;;;;;;5075687;28;20029;-52
2024/03/22 11:39:36;;;;;;;13.40;6.72;;;15.90;99.90;;;;;;5075353;28;20052;-51
2024/03/22 11:42:04;;;;;;;10.52;5.70;;;15.70;99.90;;;;;;5075511;28;20085;-50
2024/03/22 11:44:32;;;;;;;11.93;6.00;;;15.50;99.90;;;;;;5075512;28;20397;-52
2024/03/22 11:46:57;;;;;;;14.00;6.28;;;15.50;99.90;;;;;;5075357;28;20028;-54
2024/03/22 11:49:24;;;;;;;9.75;6.35;;;15.30;99.90;;;;;;5075396;28;20043;-49
2024/03/22 11:51:52;;;;;;;15.40;6.35;;;15.20;99.90;;;;;;5075348;28;20378;-49
2024/03/22 11:54:21;;;;;;;12.93;6.85;;;15.00;99.90;;;;;;5075534;28;20028;-48
2024/03/22 11:56:47;;;;;;;12.85;6.90;;;14.80;99.90;;;;;;5075063;28;20491;-52
2024/03/22 11:59:13;;;;;;;16.00;7.40;;;14.70;99.90;;;;;;5075202;28;20029;-50
2024/03/22 12:01:40;;;;;;;15.18;7.43;;;14.60;99.90;;;;;;5075112;28;20091;-53
2024/03/22 12:04:07;;;;;;;13.32;7.65;;;14.50;99.90;;;;;;5075083;28;20477;-50
2024/03/22 12:06:34;;;;;;;14.20;8.40;;;14.50;99.90;;;;;;5075089;28;20032;-52
2024/03/22 12:09:00;;;;;;;14.80;7.88;;;14.40;99.90;;;;;;5075273;28;20400;-51
2024/03/22 12:11:26;;;;;;;14.75;7.40;;;14.30;99.90;;;;;;5075040;28;20028;-52
2024/03/22 12:13:52;;;;;;;13.45;7.75;;;14.20;99.90;;;;;;5074840;28;20033;-53
2024/03/22 12:16:18;;;;;;;14.40;7.53;;;14.20;99.90;;;;;;5074861;28;20103;-52
2024/03/22 12:18:43;;;;;;;14.63;7.28;;;14.10;99.90;;;;;;5056828;28;20032;-51
2024/03/22 12:21:09;;;;;;;15.18;8.13;;;14.10;99.90;;;;;;5074897;28;20318;-53
2024/03/22 12:23:35;;;;;;;16.45;8.35;;;14.00;99.90;;;;;;5074957;28;20102;-48
2024/03/22 12:26:01;;;;;;;16.33;8.25;;;13.80;99.90;;;;;;5073343;28;20035;-47